Time;durP1;ratioP1;P1;durP2;ratioP2;P2;SDS_P1;SDS_P2;PMS_P1;PMS_P2;Temp;Humidity;BMP_temperature;BMP_pressure;BME280_temperature;BME280_humidity;BME280_pressure;Samples;Min_cycle;Max_cycle;Signal;HPM_P1;HPM_P2
2021/12/30 00:01:10;;;;;;;38.45;4.95;;;;;;;9.07;100.00;100893.94;5049427;28;20083;-39
2021/12/30 00:03:38;;;;;;;35.28;5.35;;;;;;;9.06;100.00;100893.13;5046756;28;20098;-37
2021/12/30 00:06:07;;;;;;;38.00;4.93;;;;;;;9.07;100.00;100892.00;5032865;28;20053;-34
2021/12/30 00:08:36;;;;;;;37.25;4.70;;;;;;;9.07;100.00;100903.13;5037390;28;20041;-34
2021/12/30 00:11:04;;;;;;;40.13;5.00;;;;;;;9.08;100.00;100899.22;5049814;28;20438;-33
2021/12/30 00:13:33;;;;;;;40.45;5.40;;;;;;;9.07;100.00;100896.72;5037982;28;20051;-41
2021/12/30 00:16:00;;;;;;;35.25;5.32;;;;;;;9.05;100.00;100902.59;5048590;28;20052;-33
2021/12/30 00:18:30;;;;;;;42.28;5.25;;;;;;;9.07;100.00;100896.72;5043444;28;20052;-34
2021/12/30 00:20:58;;;;;;;41.13;5.93;;;;;;;9.02;100.00;100892.03;5035831;28;20049;-35
2021/12/30 00:23:25;;;;;;;40.05;4.70;;;;;;;9.03;100.00;100907.59;5039390;28;20055;-41
2021/12/30 00:25:53;;;;;;;37.85;5.57;;;;;;;9.02;100.00;100897.59;5045115;28;20063;-33
2021/12/30 00:28:23;;;;;;;36.17;5.47;;;;;;;9.03;100.00;100913.16;5041867;28;20453;-35
2021/12/30 00:30:53;;;;;;;31.13;5.25;;;;;;;9.03;100.00;100920.69;5021208;28;20058;-40
2021/12/30 00:33:22;;;;;;;39.13;5.78;;;;;;;9.07;100.00;100917.06;5039057;28;20486;-38
2021/12/30 00:35:53;;;;;;;34.20;5.03;;;;;;;9.10;100.00;100922.03;5041294;28;20049;-35
2021/12/30 00:38:21;;;;;;;40.15;5.43;;;;;;;9.12;100.00;100916.19;5042986;28;20042;-39
2021/12/30 00:40:49;;;;;;;35.92;5.35;;;;;;;9.10;100.00;100926.78;5039591;28;20049;-36
2021/12/30 00:43:17;;;;;;;39.90;5.35;;;;;;;9.08;100.00;100924.28;5044295;28;20417;-39
2021/12/30 00:45:45;;;;;;;31.95;4.72;;;;;;;9.04;100.00;100920.41;5042458;28;20053;-37
2021/12/30 00:48:14;;;;;;;40.20;5.47;;;;;;;9.00;100.00;100924.88;5035088;28;20041;-35
2021/12/30 00:50:42;;;;;;;34.78;4.53;;;;;;;9.03;100.00;100932.66;5041301;28;20049;-33
2021/12/30 00:53:12;;;;;;;32.40;4.72;;;;;;;9.03;100.00;100927.09;5034320;28;20080;-37
2021/12/30 00:55:41;;;;;;;34.83;5.32;;;;;;;9.03;100.00;100924.31;5042904;28;20071;-31
2021/12/30 00:58:12;;;;;;;37.95;4.63;;;;;;;9.04;100.00;100936.28;5031986;28;20237;-34
2021/12/30 01:00:43;;;;;;;33.17;4.90;;;;;;;9.04;100.00;100936.28;5038120;28;20137;-35
2021/12/30 01:03:12;;;;;;;40.50;6.00;;;;;;;8.99;100.00;100951.88;5048952;28;20494;-36
2021/12/30 01:05:40;;;;;;;35.67;4.75;;;;;;;8.95;100.00;100949.97;5043022;28;20059;-36
2021/12/30 01:08:08;;;;;;;39.58;5.80;;;;;;;8.91;100.00;100955.28;5032325;28;20053;-37
2021/12/30 01:10:38;;;;;;;42.65;5.75;;;;;;;8.88;100.00;100952.22;5036681;28;20144;-38
2021/12/30 01:13:10;;;;;;;58.40;6.93;;;;;;;8.86;100.00;100957.25;5049499;28;20056;-39
2021/12/30 01:15:48;;;;;;;43.92;5.75;;;;;;;8.82;100.00;100961.72;5037409;28;20084;-37
2021/12/30 01:18:29;;;;;;;49.72;6.50;;;;;;;8.80;100.00;100969.50;5049323;28;20048;-37
2021/12/30 01:20:57;;;;;;;46.22;6.60;;;;;;;8.80;100.00;100981.47;5041149;28;20044;-31
2021/12/30 01:23:26;;;;;;;46.85;6.57;;;;;;;8.83;100.00;100971.72;5052963;28;20056;-41
2021/12/30 01:25:56;;;;;;;44.70;6.70;;;;;;;8.83;100.00;100975.34;5046783;28;20048;-36
2021/12/30 01:28:24;;;;;;;46.80;6.60;;;;;;;8.83;100.00;100980.06;5037265;28;20045;-35
2021/12/30 01:30:53;;;;;;;48.33;7.30;;;;;;;8.82;100.00;100972.84;5046626;28;20049;-38
2021/12/30 01:33:21;;;;;;;56.33;7.05;;;;;;;8.84;100.00;100979.78;5038293;28;20467;-39
2021/12/30 01:35:49;;;;;;;44.38;6.53;;;;;;;8.87;100.00;100986.72;5042208;28;20053;-35
2021/12/30 01:38:17;;;;;;;48.13;7.13;;;;;;;8.86;100.00;100971.16;5048156;28;20044;-34
2021/12/30 01:40:47;;;;;;;56.05;7.57;;;;;;;8.89;100.00;100985.34;5045059;28;20386;-30
2021/12/30 01:43:17;;;;;;;41.67;7.15;;;;;;;8.92;100.00;100978.38;5042167;28;20060;-34
2021/12/30 01:45:46;;;;;;;40.60;5.55;;;;;;;8.94;100.00;100985.31;5041387;28;20063;-35
2021/12/30 01:48:14;;;;;;;41.00;5.93;;;;;;;8.94;100.00;100982.53;5044850;28;20421;-41
2021/12/30 01:50:42;;;;;;;46.92;6.50;;;;;;;8.94;100.00;100985.31;5046885;28;20045;-35
2021/12/30 01:53:11;;;;;;;41.30;5.75;;;;;;;8.94;100.00;100993.66;5044739;28;20053;-35
2021/12/30 01:55:41;;;;;;;42.47;5.95;;;;;;;8.97;100.00;100992.28;5021138;28;20421;-39
2021/12/30 01:58:10;;;;;;;49.17;6.28;;;;;;;8.96;100.00;100979.47;5047598;28;20056;-38
2021/12/30 02:00:42;;;;;;;39.15;5.55;;;;;;;9.00;100.00;100969.41;5037172;28;20041;-37
2021/12/30 02:03:11;;;;;;;39.17;5.82;;;;;;;9.03;100.00;100956.88;5045236;28;20092;-38
2021/12/30 02:05:40;;;;;;;42.17;5.78;;;;;;;9.06;100.00;100990.53;5037646;28;20129;-39
2021/12/30 02:08:12;;;;;;;42.20;6.22;;;;;;;9.10;100.00;100990.81;5045085;28;20049;-34
2021/12/30 02:10:40;;;;;;;42.95;5.80;;;;;;;9.13;100.00;100985.50;5036227;28;20041;-34
2021/12/30 02:13:08;;;;;;;36.15;5.07;;;;;;;9.20;100.00;100997.13;5041113;28;20045;-38
2021/12/30 02:15:37;;;;;;;41.90;5.80;;;;;;;9.22;100.00;101003.25;5051248;28;20048;-35
2021/12/30 02:18:06;;;;;;;43.05;5.70;;;;;;;9.28;100.00;101002.13;5046131;28;20517;-38
2021/12/30 02:20:45;;;;;;;37.47;5.82;;;;;;;9.31;100.00;101009.91;5034140;28;20046;-38
2021/12/30 02:23:15;;;;;;;34.10;4.63;;;;;;;9.35;100.00;101009.34;5040254;28;20144;-37
2021/12/30 02:25:43;;;;;;;43.28;5.88;;;;;;;9.33;100.00;101021.59;5052527;28;20053;-35
2021/12/30 02:28:13;;;;;;;45.70;6.03;;;;;;;9.32;100.00;101017.13;5046064;28;20387;-38
2021/12/30 02:30:42;;;;;;;39.05;5.68;;;;;;;9.32;100.00;101006.00;5034391;28;20042;-39
2021/12/30 02:33:11;;;;;;;38.55;6.15;;;;;;;9.34;100.00;101014.06;5039775;28;20057;-37
2021/12/30 02:35:40;;;;;;;44.28;5.97;;;;;;;9.35;100.00;101020.47;5050328;28;20406;-37
2021/12/30 02:38:09;;;;;;;39.75;5.97;;;;;;;9.33;100.00;101007.66;5045175;28;20053;-36
2021/12/30 02:40:40;;;;;;;41.33;5.60;;;;;;;9.33;100.00;101007.66;5037251;28;20041;-35
2021/12/30 02:43:11;;;;;;;58.53;7.07;;;;;;;9.34;100.00;101014.06;5022701;28;20057;-36
2021/12/30 02:45:39;;;;;;;57.80;7.97;;;;;;;9.32;100.00;101017.13;5048040;28;20040;-34
2021/12/30 02:48:12;;;;;;;45.40;6.75;;;;;;;9.34;100.00;101014.06;5027243;28;20110;-34
2021/12/30 02:50:42;;;;;;;55.30;7.75;;;;;;;9.31;100.00;101018.25;5039279;28;20451;-40
2021/12/30 02:53:11;;;;;;;53.80;7.45;;;;;;;9.33;100.00;101023.53;5040682;28;20052;-31
2021/12/30 02:55:39;;;;;;;54.30;6.80;;;;;;;9.31;100.00;101026.59;5045072;28;20049;-36
2021/12/30 02:58:07;;;;;;;44.35;6.93;;;;;;;9.29;100.00;101028.84;5044178;28;20107;-34
2021/12/30 03:00:37;;;;;;;46.00;6.80;;;;;;;9.29;100.00;101022.44;5042947;28;20056;-39
2021/12/30 03:03:05;;;;;;;51.63;7.40;;;;;;;9.30;100.00;101030.50;5038986;28;20111;-30
2021/12/30 03:05:34;;;;;;;54.80;6.90;;;;;;;9.31;100.00;101029.41;5041382;28;20048;-41
2021/12/30 03:08:04;;;;;;;51.97;7.63;;;;;;;9.33;100.00;101017.97;5047270;28;20064;-36
2021/12/30 03:10:31;;;;;;;55.13;7.05;;;;;;;9.34;100.00;101014.06;5043189;28;20049;-37
2021/12/30 03:13:05;;;;;;;59.53;7.03;;;;;;;9.38;100.00;101005.97;5036537;28;20059;-34
2021/12/30 03:15:33;;;;;;;45.88;6.95;;;;;;;9.39;100.00;100979.78;5041695;28;20336;-30
2021/12/30 03:18:01;;;;;;;49.50;6.55;;;;;;;9.41;100.00;100969.16;5048314;28;20045;-36
2021/12/30 03:20:32;;;;;;;47.13;6.50;;;;;;;9.45;100.00;100965.53;5044898;28;20128;-30
2021/12/30 03:23:00;;;;;;;52.30;6.50;;;;;;;9.47;100.00;100956.88;5034555;28;20064;-31
2021/12/30 03:25:29;;;;;;;50.33;7.00;;;;;;;9.52;100.00;100954.91;5039013;28;20045;-39
2021/12/30 03:27:57;;;;;;;41.42;6.93;;;;;;;9.57;100.00;100967.97;5051126;28;20045;-34
2021/12/30 03:30:25;;;;;;;52.78;6.47;;;;;;;9.58;100.00;100983.56;5045744;28;20067;-35
2021/12/30 03:32:53;;;;;;;49.80;6.65;;;;;;;9.61;100.00;100996.88;5032962;28;20057;-38
2021/12/30 03:35:21;;;;;;;45.10;5.95;;;;;;;9.62;100.00;100981.84;5038760;28;20061;-33
2021/12/30 03:37:49;;;;;;;60.70;7.75;;;;;;;9.63;100.00;100977.94;5050519;28;20049;-37
2021/12/30 03:40:18;;;;;;;50.20;6.47;;;;;;;9.61;100.00;100988.53;5043151;28;20502;-32
2021/12/30 03:42:47;;;;;;;57.03;7.68;;;;;;;9.59;100.00;100993.59;5035102;28;20045;-34
2021/12/30 03:45:16;;;;;;;49.17;6.43;;;;;;;9.57;100.00;101012.53;5038854;28;20053;-36
2021/12/30 03:47:47;;;;;;;46.45;7.28;;;;;;;9.55;100.00;101021.19;5047075;28;20145;-36
2021/12/30 03:50:20;;;;;;;48.70;6.80;;;;;;;9.56;100.00;101010.88;5043652;28;20033;-32
2021/12/30 03:52:49;;;;;;;40.90;6.18;;;;;;;9.58;100.00;100984.38;5019831;28;20050;-37
2021/12/30 03:55:19;;;;;;;50.17;7.65;;;;;;;9.56;100.00;100988.59;5039612;28;20037;-36
2021/12/30 03:57:49;;;;;;;42.67;6.30;;;;;;;9.55;100.00;100982.19;5044542;28;20418;-37
2021/12/30 04:00:18;;;;;;;49.30;5.85;;;;;;;9.58;100.00;100986.34;5042970;28;20056;-39
2021/12/30 04:02:46;;;;;;;51.85;7.05;;;;;;;9.59;100.00;100993.59;5040807;28;20046;-36
2021/12/30 04:05:14;;;;;;;41.80;6.20;;;;;;;9.63;100.00;100997.44;5039087;28;20548;-35
2021/12/30 04:07:42;;;;;;;46.40;6.30;;;;;;;9.65;100.00;101001.59;5040056;28;20144;-31
2021/12/30 04:10:13;;;;;;;41.22;5.90;;;;;;;9.65;100.00;101001.59;5045610;28;20752;-41
2021/12/30 04:12:41;;;;;;;32.33;6.03;;;;;;;9.64;100.00;100997.16;5042893;28;20450;-39
2021/12/30 04:15:11;;;;;;;49.25;6.25;;;;;;;9.68;100.00;101000.19;5034856;28;20084;-36
2021/12/30 04:17:39;;;;;;;46.20;6.22;;;;;;;9.67;100.00;101007.72;5042660;28;20132;-34
2021/12/30 04:20:12;;;;;;;37.47;6.07;;;;;;;9.67;100.00;101004.94;5034994;28;20054;-29
2021/12/30 04:22:41;;;;;;;39.15;5.60;;;;;;;9.69;100.00;101013.00;5039794;28;20482;-34
2021/12/30 04:25:11;;;;;;;39.33;5.50;;;;;;;9.71;100.00;101012.72;5048620;28;20053;-37
2021/12/30 04:27:40;;;;;;;32.90;5.38;;;;;;;9.72;100.00;100997.66;5043067;28;20049;-33
2021/12/30 04:30:11;;;;;;;44.83;5.65;;;;;;;9.71;100.00;100998.78;5032968;28;20055;-35
2021/12/30 04:32:40;;;;;;;39.70;5.73;;;;;;;9.70;100.00;100981.22;5043765;28;20045;-36
2021/12/30 04:35:08;;;;;;;35.85;5.35;;;;;;;9.70;100.00;100986.81;5032048;28;20037;-32
2021/12/30 04:37:36;;;;;;;33.42;5.35;;;;;;;9.71;100.00;100994.03;5037658;28;20065;-33
2021/12/30 04:40:05;;;;;;;41.33;5.43;;;;;;;9.70;100.00;100983.19;5049628;28;20053;-31
2021/12/30 04:42:34;;;;;;;29.98;4.57;;;;;;;9.72;100.00;100987.34;5043410;28;20041;-33
2021/12/30 04:45:02;;;;;;;36.53;5.25;;;;;;;9.71;100.00;100991.25;5033295;28;20499;-32
2021/12/30 04:47:31;;;;;;;31.23;4.47;;;;;;;9.75;100.00;100992.34;5038764;28;20115;-34
2021/12/30 04:49:59;;;;;;;45.35;6.07;;;;;;;9.76;100.00;100982.03;5046808;28;20410;-37
2021/12/30 04:52:27;;;;;;;46.47;5.97;;;;;;;9.75;100.00;100980.38;5042561;28;20113;-29
2021/12/30 04:54:55;;;;;;;42.55;5.35;;;;;;;9.75;100.00;101000.69;5037090;28;20053;-36
2021/12/30 04:57:23;;;;;;;33.25;5.18;;;;;;;9.75;100.00;100985.94;5038018;28;20483;-37
2021/12/30 04:59:50;;;;;;;42.97;6.10;;;;;;;9.76;100.00;100982.03;5043624;28;20048;-34
2021/12/30 05:02:18;;;;;;;37.78;5.18;;;;;;;9.78;100.00;100985.34;5042381;28;20156;-33
2021/12/30 05:04:48;;;;;;;40.08;5.80;;;;;;;9.76;100.00;100987.59;5039380;28;20049;-39
2021/12/30 05:07:15;;;;;;;37.83;5.72;;;;;;;9.78;100.00;100985.34;5035876;28;20052;-38
2021/12/30 05:09:43;;;;;;;36.20;5.53;;;;;;;9.78;100.00;100994.56;5038686;28;20045;-38
2021/12/30 05:12:11;;;;;;;31.98;5.05;;;;;;;9.81;100.00;100995.91;5044811;28;20495;-29
2021/12/30 05:14:38;;;;;;;29.95;4.82;;;;;;;9.81;100.00;100999.53;5042022;28;20049;-35
2021/12/30 05:17:06;;;;;;;26.02;5.10;;;;;;;9.81;100.00;101010.66;5033989;28;20047;-37
2021/12/30 05:19:34;;;;;;;32.47;4.40;;;;;;;9.81;100.00;100993.94;5039080;28;20047;-35
2021/12/30 05:22:03;;;;;;;34.13;5.15;;;;;;;9.80;100.00;100997.84;5047950;28;20041;-37
2021/12/30 05:24:31;;;;;;;28.05;4.38;;;;;;;9.80;100.00;100994.22;5042516;28;20049;-36
2021/12/30 05:26:59;;;;;;;32.83;4.63;;;;;;;9.82;100.00;101003.13;5032194;28;20048;-31
2021/12/30 05:29:26;;;;;;;23.88;4.13;;;;;;;9.82;100.00;100995.63;5037773;28;20053;-35
2021/12/30 05:31:54;;;;;;;28.73;4.07;;;;;;;9.80;100.00;100991.44;5048392;28;20045;-34
2021/12/30 05:34:22;;;;;;;34.22;4.80;;;;;;;9.78;100.00;100999.28;5043723;28;20493;-30
2021/12/30 05:36:49;;;;;;;32.83;4.40;;;;;;;9.76;100.00;100990.38;5032204;28;20057;-39
2021/12/30 05:39:19;;;;;;;36.38;4.72;;;;;;;9.77;100.00;100984.53;5036939;28;20140;-34
2021/12/30 05:41:47;;;;;;;29.75;4.28;;;;;;;9.77;100.00;100984.53;5047923;28;20107;-35
2021/12/30 05:44:15;;;;;;;24.88;3.65;;;;;;;9.78;100.00;100990.94;5042340;28;20048;-39
2021/12/30 05:46:42;;;;;;;28.23;4.05;;;;;;;9.78;100.00;100983.41;5034881;28;20057;-32
2021/12/30 05:49:10;;;;;;;22.60;3.03;;;;;;;9.79;100.00;100971.09;5038130;28;20499;-39
2021/12/30 05:51:38;;;;;;;32.92;3.83;;;;;;;9.81;100.00;100968.88;5043042;28;20049;-34
2021/12/30 05:54:06;;;;;;;31.23;4.00;;;;;;;9.81;100.00;100971.66;5042121;28;20133;-38
2021/12/30 05:56:35;;;;;;;23.67;3.50;;;;;;;9.80;100.00;100972.78;5039715;28;20064;-32
2021/12/30 05:59:03;;;;;;;24.80;3.40;;;;;;;9.79;100.00;100987.03;5037782;28;20409;-43
2021/12/30 06:01:31;;;;;;;34.33;3.97;;;;;;;9.78;100.00;100983.41;5039502;28;20433;-37
2021/12/30 06:04:03;;;;;;;23.90;3.97;;;;;;;9.79;100.00;100993.41;5044444;28;20044;-39
2021/12/30 06:06:31;;;;;;;25.90;3.58;;;;;;;9.78;100.00;100999.28;5044400;28;20522;-40
2021/12/30 06:08:58;;;;;;;24.08;3.42;;;;;;;9.79;100.00;101003.75;5038245;28;20047;-31
2021/12/30 06:11:26;;;;;;;23.33;3.33;;;;;;;9.75;100.00;101003.50;5042852;28;20033;-36
2021/12/30 06:13:55;;;;;;;25.85;3.75;;;;;;;9.75;100.00;100997.91;5049028;28;20137;-43
2021/12/30 06:16:23;;;;;;;30.27;3.63;;;;;;;9.75;100.00;100989.56;5046164;28;20041;-33
2021/12/30 06:18:51;;;;;;;25.40;3.58;;;;;;;9.77;100.00;101009.59;5035671;28;20072;-35
2021/12/30 06:21:18;;;;;;;27.20;3.47;;;;;;;9.79;100.00;101000.97;5040248;28;20054;-37
2021/12/30 06:23:46;;;;;;;27.60;3.33;;;;;;;9.81;100.00;100993.94;5052375;28;20076;-32
2021/12/30 06:26:14;;;;;;;28.48;3.72;;;;;;;9.83;100.00;100999.22;5046913;28;20045;-37
2021/12/30 06:28:42;;;;;;;26.23;3.47;;;;;;;9.84;100.00;100987.78;5034134;28;20045;-36
2021/12/30 06:31:11;;;;;;;31.40;3.60;;;;;;;9.87;100.00;100986.38;5040173;28;20053;-35
2021/12/30 06:33:39;;;;;;;30.85;3.65;;;;;;;9.87;100.00;100989.16;5051570;28;20087;-38
2021/12/30 06:36:08;;;;;;;29.48;3.72;;;;;;;9.88;100.00;100999.19;5044685;28;20489;-35
2021/12/30 06:38:35;;;;;;;30.27;3.70;;;;;;;9.88;100.00;101002.81;5037239;28;20450;-39
2021/12/30 06:41:04;;;;;;;29.58;3.35;;;;;;;9.89;100.00;101009.22;5040087;28;20061;-33
2021/12/30 06:43:31;;;;;;;36.22;3.83;;;;;;;9.87;100.00;101009.50;5047326;28;20048;-38
2021/12/30 06:46:01;;;;;;;24.15;3.38;;;;;;;9.88;100.00;101005.59;5044849;28;20056;-36
2021/12/30 06:48:30;;;;;;;24.85;3.30;;;;;;;9.89;100.00;100996.13;5040193;28;20487;-38
2021/12/30 06:51:00;;;;;;;29.60;3.95;;;;;;;9.94;100.00;101006.41;5040838;28;20044;-40
2021/12/30 06:53:28;;;;;;;28.42;4.10;;;;;;;9.99;100.00;101000.78;5044247;28;20044;-37
2021/12/30 06:55:55;;;;;;;26.90;3.42;;;;;;;10.00;100.00;101010.78;5043895;28;20049;-36
2021/12/30 06:58:23;;;;;;;28.35;4.20;;;;;;;10.03;100.00;101013.84;5042315;28;20045;-37
2021/12/30 07:00:51;;;;;;;30.92;4.82;;;;;;;10.02;100.00;101009.38;5046006;28;20434;-38
2021/12/30 07:03:19;;;;;;;33.13;5.07;;;;;;;10.01;100.00;101007.72;5042709;28;20041;-32
2021/12/30 07:05:51;;;;;;;40.60;4.38;;;;;;;10.06;100.00;101001.28;5035583;28;20057;-38
2021/12/30 07:08:19;;;;;;;27.75;3.30;;;;;;;10.06;100.00;101009.63;5042295;28;20545;-38
2021/12/30 07:10:47;;;;;;;28.30;3.65;;;;;;;10.03;100.00;101011.03;5034248;28;20041;-36
2021/12/30 07:13:14;;;;;;;31.23;4.22;;;;;;;10.03;100.00;101022.19;5039109;28;20512;-38
2021/12/30 07:15:42;;;;;;;24.27;4.20;;;;;;;10.02;100.00;101017.75;5049890;28;20520;-39
2021/12/30 07:18:10;;;;;;;36.15;4.78;;;;;;;10.05;100.00;101007.13;5043264;28;20052;-31
2021/12/30 07:20:38;;;;;;;32.50;4.60;;;;;;;10.07;100.00;101004.88;5032819;28;20044;-33
2021/12/30 07:23:07;;;;;;;37.88;5.03;;;;;;;10.09;100.00;101016.59;5036987;28;20037;-38
2021/12/30 07:25:35;;;;;;;26.92;4.45;;;;;;;10.09;100.00;101019.38;5049926;28;20049;-36
2021/12/30 07:28:03;;;;;;;28.65;4.05;;;;;;;10.12;100.00;101022.41;5044793;28;20076;-33
2021/12/30 07:30:32;;;;;;;28.55;4.05;;;;;;;10.14;100.00;101033.28;5032667;28;20081;-37
2021/12/30 07:33:01;;;;;;;24.20;4.28;;;;;;;10.12;100.00;101018.78;5038896;28;20049;-39
2021/12/30 07:35:28;;;;;;;32.17;3.97;;;;;;;10.08;100.00;101029.69;5047448;28;20139;-36
2021/12/30 07:37:56;;;;;;;32.80;4.43;;;;;;;10.09;100.00;101041.69;5041977;28;20490;-39
2021/12/30 07:40:25;;;;;;;33.60;4.32;;;;;;;10.11;100.00;101040.28;5036689;28;20154;-35
2021/12/30 07:42:53;;;;;;;26.27;3.97;;;;;;;10.13;100.00;101045.56;5038923;28;20115;-40
2021/12/30 07:45:21;;;;;;;30.05;3.95;;;;;;;10.14;100.00;101045.25;5042922;28;20144;-42
2021/12/30 07:47:50;;;;;;;26.73;4.22;;;;;;;10.14;100.00;101041.66;5042856;28;20042;-41
2021/12/30 07:50:18;;;;;;;29.88;4.32;;;;;;;10.12;100.00;101041.09;5040798;28;20053;-32
2021/12/30 07:52:46;;;;;;;23.77;3.92;;;;;;;10.14;100.00;101036.06;5037347;28;20044;-32
2021/12/30 07:55:14;;;;;;;23.98;3.80;;;;;;;10.15;100.00;101034.94;5039592;28;20423;-38
2021/12/30 07:57:44;;;;;;;29.23;3.90;;;;;;;10.12;100.00;101032.72;5042760;28;20148;-36
2021/12/30 08:00:17;;;;;;;28.92;3.80;;;;;;;10.13;100.00;101043.59;5040675;28;20055;-34
2021/12/30 08:02:46;;;;;;;30.05;4.32;;;;;;;10.09;100.00;101045.31;5033899;28;20131;-38
2021/12/30 08:05:15;;;;;;;28.35;4.30;;;;;;;10.09;100.00;101048.09;5038297;28;20041;-35
2021/12/30 08:07:45;;;;;;;31.38;4.25;;;;;;;10.07;100.00;101046.72;5045722;28;20056;-37
2021/12/30 08:10:15;;;;;;;30.02;4.68;;;;;;;10.04;100.00;101053.69;5037468;28;20048;-33
2021/12/30 08:12:46;;;;;;;28.77;3.92;;;;;;;10.05;100.00;101051.75;5046254;28;20498;-39
2021/12/30 08:15:14;;;;;;;30.80;3.95;;;;;;;10.03;100.00;101054.81;5042645;28;20061;-37
2021/12/30 08:17:43;;;;;;;32.75;4.93;;;;;;;9.99;100.00;101049.00;5031585;28;20045;-37
2021/12/30 08:20:12;;;;;;;31.05;4.65;;;;;;;9.97;100.00;101062.41;5042199;28;20075;-34
2021/12/30 08:22:40;;;;;;;37.28;4.10;;;;;;;9.97;100.00;101076.34;5014017;28;20425;-31
2021/12/30 08:25:10;;;;;;;34.40;5.13;;;;;;;10.01;100.00;101080.19;5036413;28;20049;-36
2021/12/30 08:27:38;;;;;;;30.10;3.78;;;;;;;10.04;100.00;101076.00;5047726;28;20053;-40
2021/12/30 08:30:11;;;;;;;33.28;4.22;;;;;;;10.08;100.00;101087.41;5036886;28;20140;-36
2021/12/30 08:32:38;;;;;;;36.75;5.28;;;;;;;10.08;100.00;101096.59;5048872;28;20394;-36
2021/12/30 08:35:08;;;;;;;27.27;4.03;;;;;;;10.10;100.00;101091.56;5036708;28;20063;-33
2021/12/30 08:37:36;;;;;;;31.85;4.95;;;;;;;10.09;100.00;101101.06;5046930;28;20045;-31
2021/12/30 08:40:07;;;;;;;37.80;4.60;;;;;;;10.09;100.00;101105.81;5041565;28;20166;-38
2021/12/30 08:42:35;;;;;;;33.88;4.43;;;;;;;10.08;100.00;101101.34;5034620;28;20064;-34
2021/12/30 08:45:04;;;;;;;36.00;4.40;;;;;;;10.10;100.00;101113.06;5037680;28;20045;-38
2021/12/30 08:47:34;;;;;;;31.40;4.75;;;;;;;10.07;100.00;101103.31;5035256;28;20057;-33
2021/12/30 08:50:02;;;;;;;37.53;4.88;;;;;;;10.03;100.00;101093.84;5039146;28;20059;-32
2021/12/30 08:52:30;;;;;;;33.10;4.20;;;;;;;10.02;100.00;101108.91;5038075;28;20042;-35
2021/12/30 08:55:04;;;;;;;38.55;4.57;;;;;;;10.00;100.00;101100.84;5037078;28;20072;-33
2021/12/30 08:57:32;;;;;;;41.85;5.10;;;;;;;9.99;100.00;101103.94;5038681;28;20121;-35
2021/12/30 09:00:00;;;;;;;34.15;4.38;;;;;;;9.98;100.00;101110.63;5042088;28;20140;-37
2021/12/30 09:02:28;;;;;;;35.78;4.53;;;;;;;9.96;100.00;101113.72;5040169;28;20050;-36
2021/12/30 09:04:57;;;;;;;39.53;5.15;;;;;;;9.97;100.00;101123.75;5034610;28;20131;-36
2021/12/30 09:07:25;;;;;;;30.88;5.13;;;;;;;9.96;100.00;101112.88;5038918;28;20052;-39
2021/12/30 09:09:53;;;;;;;35.65;5.35;;;;;;;9.98;100.00;101105.91;5044346;28;20072;-41
2021/12/30 09:12:22;;;;;;;40.13;5.00;;;;;;;9.99;100.00;101113.09;5040730;28;20072;-32
2021/12/30 09:15:11;;;;;;;34.08;4.80;;;;;;;10.03;100.00;101121.72;5034119;28;20102;-35
2021/12/30 09:17:40;;;;;;;38.55;5.50;;;;;;;10.01;100.00;101110.88;5037763;28;20048;-37
2021/12/30 09:20:11;;;;;;;35.40;4.85;;;;;;;10.06;100.00;101139.84;5046220;28;20234;-40
2021/12/30 09:22:39;;;;;;;40.53;5.88;;;;;;;10.07;100.00;101130.34;5036652;28;20047;-36
2021/12/30 09:25:10;;;;;;;37.17;5.05;;;;;;;10.06;100.00;101143.47;5048254;28;20052;-36
2021/12/30 09:27:40;;;;;;;32.75;4.78;;;;;;;10.07;100.00;101141.50;5043389;28;20050;-37
2021/12/30 09:30:11;;;;;;;36.78;5.40;;;;;;;10.07;100.00;101133.16;5031248;28;20163;-34
2021/12/30 09:32:39;;;;;;;42.50;6.00;;;;;;;10.05;100.00;101143.75;5043186;28;20045;-38
2021/12/30 09:35:10;;;;;;;38.55;6.82;;;;;;;10.01;100.00;101141.53;5032226;28;20049;-35
2021/12/30 09:37:38;;;;;;;35.08;5.28;;;;;;;10.08;100.00;101143.19;5036581;28;20057;-33
2021/12/30 09:40:10;;;;;;;44.20;5.63;;;;;;;10.14;100.00;101161.56;5034455;28;20057;-35
2021/12/30 09:42:39;;;;;;;48.03;6.30;;;;;;;10.20;100.00;101146.47;5040712;28;20056;-39
2021/12/30 09:45:08;;;;;;;45.80;7.13;;;;;;;10.25;100.00;101157.59;5051937;28;20060;-32
2021/12/30 09:47:36;;;;;;;48.17;7.15;;;;;;;10.24;100.00;101167.06;5046236;28;20153;-38
2021/12/30 09:50:05;;;;;;;49.97;6.50;;;;;;;10.25;100.00;101175.16;5036934;28;20167;-35
2021/12/30 09:52:34;;;;;;;54.50;7.55;;;;;;;10.23;100.00;101165.41;5040422;28;20195;-37
2021/12/30 09:55:01;;;;;;;48.85;7.70;;;;;;;10.23;100.00;101170.97;5049386;28;20049;-41
2021/12/30 09:57:29;;;;;;;53.50;7.90;;;;;;;10.24;100.00;101167.91;5045424;28;20053;-34
2021/12/30 09:59:57;;;;;;;64.45;8.48;;;;;;;10.23;100.00;101187.72;5039641;28;20053;-33
2021/12/30 10:02:25;;;;;;;51.20;8.43;;;;;;;10.25;100.00;101174.31;5041328;28;20043;-34
2021/12/30 10:05:04;;;;;;;57.83;7.90;;;;;;;10.28;100.00;101185.75;5045077;28;20048;-28
2021/12/30 10:07:34;;;;;;;52.15;7.85;;;;;;;10.27;100.00;101180.44;5045687;28;20056;-34
2021/12/30 10:10:03;;;;;;;64.40;8.27;;;;;;;10.27;100.00;101183.22;5042649;28;20057;-37
2021/12/30 10:12:36;;;;;;;48.80;7.85;;;;;;;10.28;100.00;101191.31;5040321;28;20506;-34
2021/12/30 10:15:05;;;;;;;53.97;8.07;;;;;;;10.28;100.00;101184.91;5044388;28;20398;-38
2021/12/30 10:17:33;;;;;;;55.05;8.82;;;;;;;10.27;100.00;101181.28;5046344;28;20430;-33
2021/12/30 10:20:16;;;;;;;52.38;7.70;;;;;;;10.28;100.00;101180.16;5044180;28;20049;-38
2021/12/30 10:22:47;;;;;;;63.88;9.23;;;;;;;10.27;100.00;101186.84;5040745;28;20045;-34
2021/12/30 10:25:29;;;;;;;48.97;7.20;;;;;;;10.32;100.00;101198.00;5042419;28;20490;-39
2021/12/30 10:28:17;;;;;;;54.20;8.30;;;;;;;10.34;100.00;101206.06;5045086;28;20064;-36
2021/12/30 10:30:45;;;;;;;64.30;8.18;;;;;;;10.29;100.00;101206.09;5045451;28;20052;-35
2021/12/30 10:33:15;;;;;;;53.05;7.18;;;;;;;10.35;100.00;101210.53;5044392;28;20045;-38
2021/12/30 10:35:44;;;;;;;51.42;7.65;;;;;;;10.31;100.00;101204.69;5043415;28;20418;-35
2021/12/30 10:38:14;;;;;;;54.67;8.02;;;;;;;10.38;100.00;101195.16;5039756;28;20049;-33
2021/12/30 10:40:44;;;;;;;52.42;8.18;;;;;;;10.35;100.00;101191.00;5041401;28;20044;-35
2021/12/30 10:43:23;;;;;;;55.50;7.78;;;;;;;10.35;100.00;101196.59;5047796;28;20045;-35
2021/12/30 10:46:23;;;;;;;54.47;7.30;;;;;;;10.34;100.00;101220.03;5044558;28;20052;-35
2021/12/30 10:48:57;;;;;;;60.25;8.32;;;;;;;10.31;100.00;101215.84;5040509;28;20084;-36
2021/12/30 10:51:31;;;;;;;58.45;9.25;;;;;;;10.33;100.00;101205.22;5044533;28;20045;-35
2021/12/30 10:54:09;;;;;;;58.22;7.68;;;;;;;10.33;100.00;101210.81;5044296;28;20487;-30
2021/12/30 10:56:39;;;;;;;56.88;8.07;;;;;;;10.33;100.00;101208.03;5041371;28;20149;-40
2021/12/30 10:59:30;;;;;;;51.78;7.40;;;;;;;10.33;100.00;101201.63;5040655;28;20048;-31
2021/12/30 11:02:00;;;;;;;53.33;7.57;;;;;;;10.30;100.00;101200.22;5045305;28;20053;-40
2021/12/30 11:04:33;;;;;;;45.28;7.15;;;;;;;10.29;100.00;101214.47;5044821;28;20052;-35
2021/12/30 11:07:01;;;;;;;47.75;7.22;;;;;;;10.32;100.00;101199.94;5040820;28;20056;-38
2021/12/30 11:09:31;;;;;;;60.63;8.35;;;;;;;10.30;100.00;101216.13;5039438;28;20055;-34
2021/12/30 11:12:01;;;;;;;45.08;6.82;;;;;;;10.30;100.00;101213.34;5043122;28;20421;-41
2021/12/30 11:14:30;;;;;;;56.33;7.22;;;;;;;10.37;100.00;101221.41;5045297;28;20057;-39
2021/12/30 11:17:09;;;;;;;55.58;8.32;;;;;;;10.44;100.00;101228.31;5043214;28;20132;-41
2021/12/30 11:19:40;;;;;;;48.17;7.65;;;;;;;10.50;100.00;101216.00;5037452;28;20049;-35
2021/12/30 11:22:10;;;;;;;47.25;6.65;;;;;;;10.52;100.00;101205.38;5043319;28;20049;-38
2021/12/30 11:24:40;;;;;;;50.63;7.63;;;;;;;10.60;100.00;101220.66;5038088;28;20066;-35